createdAt,value
2019-05-10T00:00:16.878Z,85.74
2019-05-10T00:01:16.833Z,85.64
2019-05-10T00:02:16.792Z,85.84
2019-05-10T00:03:16.764Z,86.51
2019-05-10T00:04:16.731Z,86.79
2019-05-10T00:05:16.690Z,86.79
2019-05-10T00:06:16.644Z,86.69
2019-05-10T00:07:16.666Z,86.03
2019-05-10T00:08:16.582Z,86.03
2019-05-10T00:09:16.539Z,86.12
2019-05-10T00:10:16.496Z,87.03
2019-05-10T00:11:16.471Z,86.46
2019-05-10T00:12:16.448Z,86.36
2019-05-10T00:13:16.401Z,87.13
2019-05-10T00:14:16.376Z,87.41
2019-05-10T00:15:16.376Z,87.51
2019-05-10T00:16:16.274Z,87.32
2019-05-10T00:17:16.258Z,87.23
2019-05-10T00:18:16.212Z,87.79
2019-05-10T00:19:16.187Z,87.98
2019-05-10T00:20:16.166Z,87.98
2019-05-10T00:21:16.093Z,88.08
2019-05-10T00:22:16.092Z,87.98
2019-05-10T00:23:16.032Z,86.65
2019-05-10T00:24:15.991Z,84.75
2019-05-10T00:25:15.951Z,84.65
2019-05-10T00:26:15.926Z,85.85
2019-05-10T00:27:15.888Z,86.32
2019-05-10T00:28:15.857Z,85.85
2019-05-10T00:29:15.836Z,88.13
2019-05-10T00:30:16.406Z,88.99
2019-05-10T00:31:15.738Z,85.66
2019-05-10T00:32:15.772Z,84.52
2019-05-10T00:33:15.660Z,84.04
2019-05-10T00:34:15.658Z,83.56
2019-05-10T00:35:15.610Z,83.94
2019-05-10T00:36:15.563Z,84.89
2019-05-10T00:37:15.543Z,86.32
2019-05-10T00:38:15.483Z,86.80
2019-05-10T00:39:19.231Z,87.32
2019-05-10T00:40:15.406Z,85.18
2019-05-10T00:41:15.378Z,84.04
2019-05-10T00:42:15.345Z,83.47
2019-05-10T00:43:15.302Z,82.90
2019-05-10T00:44:15.262Z,83.18
2019-05-10T00:45:15.213Z,82.80
2019-05-10T00:46:15.222Z,82.90
2019-05-10T00:47:15.167Z,82.80
2019-05-10T00:48:15.115Z,82.99
2019-05-10T00:49:15.082Z,82.99
2019-05-10T00:50:20.632Z,82.42
2019-05-10T00:51:17.942Z,82.70
2019-05-10T00:52:18.471Z,82.42
2019-05-10T00:54:08.627Z,83.18
2019-05-10T00:55:18.456Z,83.18
2019-05-10T00:57:02.192Z,83.65
2019-05-10T00:58:02.006Z,83.37
2019-05-10T00:59:56.643Z,83.28
2019-05-10T01:00:56.499Z,83.37
2019-05-10T01:01:56.492Z,83.37
2019-05-10T01:02:56.450Z,83.56
2019-05-10T01:03:56.394Z,83.75
2019-05-10T01:04:56.362Z,83.65
2019-05-10T01:05:56.372Z,84.04
2019-05-10T01:06:56.659Z,83.56
2019-05-10T01:07:56.239Z,83.28
2019-05-10T01:08:56.206Z,83.47
2019-05-10T01:09:56.150Z,82.70
2019-05-10T01:10:56.105Z,82.99
2019-05-10T01:11:56.088Z,82.61
2019-05-10T01:12:56.054Z,82.51
2019-05-10T01:13:56.011Z,82.90
2019-05-10T01:14:55.986Z,82.90
2019-05-10T01:15:55.935Z,82.51
2019-05-10T01:16:55.893Z,83.28
2019-05-10T01:17:55.867Z,82.80
2019-05-10T01:18:55.820Z,82.51
2019-05-10T01:19:55.817Z,83.28
2019-05-10T01:20:55.747Z,83.28
2019-05-10T01:21:55.700Z,82.80
2019-05-10T01:22:55.664Z,82.32
2019-05-10T01:23:55.629Z,82.42
2019-05-10T01:24:55.602Z,82.90
2019-05-10T01:25:55.580Z,82.32
2019-05-10T01:26:55.533Z,82.90
2019-05-10T01:27:55.495Z,82.70
2019-05-10T01:28:55.465Z,83.75
2019-05-10T01:29:55.410Z,82.99
2019-05-10T01:30:55.407Z,82.80
2019-05-10T01:31:55.354Z,82.99
2019-05-10T01:32:55.297Z,83.28
2019-05-10T01:33:55.280Z,83.65
2019-05-10T01:34:55.219Z,84.04
2019-05-10T01:35:55.179Z,83.65
2019-05-10T01:36:55.142Z,82.99
2019-05-10T01:37:55.099Z,84.89
2019-05-10T01:38:55.073Z,85.18
2019-05-10T01:39:55.044Z,84.23
2019-05-10T01:40:54.995Z,82.51
2019-05-10T01:41:54.994Z,84.04
2019-05-10T01:42:54.929Z,84.99
2019-05-10T01:43:54.906Z,86.09
2019-05-10T01:44:54.837Z,86.09
2019-05-10T01:45:54.799Z,84.47
2019-05-10T01:46:54.780Z,84.00
2019-05-10T01:47:54.739Z,83.37
2019-05-10T01:48:54.709Z,85.24
2019-05-10T01:49:54.676Z,86.38
2019-05-10T01:50:54.637Z,85.52
2019-05-10T01:51:54.611Z,84.85
2019-05-10T01:52:54.552Z,83.71
2019-05-10T01:53:54.517Z,83.71
2019-05-10T01:54:54.497Z,84.66
2019-05-10T01:55:54.463Z,85.71
2019-05-10T01:56:54.397Z,83.81
2019-05-10T01:57:54.382Z,85.80
2019-05-10T01:58:54.347Z,84.85
2019-05-10T01:59:54.301Z,84.00
2019-05-10T02:00:54.249Z,84.66
2019-05-10T02:01:54.217Z,84.76
2019-05-10T02:02:54.201Z,84.76
2019-05-10T02:03:54.126Z,85.76
2019-05-10T02:04:54.099Z,85.99
2019-05-10T02:05:54.063Z,86.52
2019-05-10T02:06:54.049Z,88.04
2019-05-10T02:07:53.991Z,87.85
2019-05-10T02:08:53.941Z,86.33
2019-05-10T02:09:53.929Z,86.05
2019-05-10T02:10:53.890Z,86.33
2019-05-10T02:11:53.861Z,86.99
2019-05-10T02:12:53.800Z,85.76
2019-05-10T02:13:53.768Z,86.24
2019-05-10T02:14:53.792Z,86.57
2019-05-10T02:15:53.700Z,87.34
2019-05-10T02:16:53.667Z,87.14
2019-05-10T02:17:53.614Z,86.29
2019-05-10T02:18:53.584Z,87.05
2019-05-10T02:19:53.534Z,87.81
2019-05-10T02:20:53.511Z,86.76
2019-05-10T02:21:53.465Z,85.05
2019-05-10T02:22:53.436Z,86.38
2019-05-10T02:23:53.385Z,86.76
2019-05-10T02:24:53.356Z,84.58
2019-05-10T02:26:08.422Z,83.53
2019-05-10T02:26:53.282Z,83.91
2019-05-10T02:27:53.243Z,84.14
2019-05-10T02:28:53.212Z,84.39
2019-05-10T02:29:53.147Z,83.72
2019-05-10T02:30:53.131Z,83.91
2019-05-10T02:31:53.103Z,84.58
2019-05-10T02:32:53.052Z,84.95
2019-05-10T02:33:53.047Z,85.81
2019-05-10T02:34:52.972Z,85.53
2019-05-10T02:35:52.929Z,85.24
2019-05-10T02:36:52.879Z,84.86
2019-05-10T02:37:52.849Z,84.58
2019-05-10T02:38:52.815Z,84.67
2019-05-10T02:39:52.770Z,84.39
2019-05-10T02:40:55.821Z,84.48
2019-05-10T02:41:52.693Z,84.58
2019-05-10T02:42:52.664Z,84.67
2019-05-10T02:43:52.647Z,84.77
2019-05-10T02:44:52.586Z,83.62
2019-05-10T02:45:52.549Z,83.82
2019-05-10T02:46:52.504Z,84.20
2019-05-10T02:47:52.472Z,84.10
2019-05-10T02:49:30.008Z,83.72
2019-05-10T02:49:52.406Z,83.53
2019-05-10T02:51:47.067Z,82.96
2019-05-10T02:52:46.948Z,83.06
2019-05-10T02:53:46.903Z,83.19
2019-05-10T02:54:46.848Z,83.19
2019-05-10T02:55:46.803Z,82.62
2019-05-10T02:56:46.759Z,82.62
2019-05-10T02:57:46.715Z,82.24
2019-05-10T02:58:46.704Z,82.34
2019-05-10T02:59:46.678Z,82.34
2019-05-10T03:00:46.603Z,82.53
2019-05-10T03:01:46.593Z,82.34
2019-05-10T03:02:46.639Z,82.48
2019-05-10T03:03:46.526Z,82.57
2019-05-10T03:04:46.440Z,82.48
2019-05-10T03:05:48.573Z,82.48
2019-05-10T03:06:46.355Z,82.57
2019-05-10T03:07:46.312Z,82.57
2019-05-10T03:08:46.273Z,82.19
2019-05-10T03:09:46.238Z,82.38
2019-05-10T03:10:46.206Z,82.38
2019-05-10T03:11:46.183Z,82.38
2019-05-10T03:12:46.135Z,82.28
2019-05-10T03:13:46.079Z,82.28
2019-05-10T03:14:46.067Z,82.57
2019-05-10T03:15:46.007Z,82.48
2019-05-10T03:16:45.988Z,82.67
2019-05-10T03:17:45.975Z,83.14
2019-05-10T03:18:45.921Z,82.76
2019-05-10T03:19:45.911Z,82.86
2019-05-10T03:20:45.913Z,82.95
2019-05-10T03:21:45.819Z,82.95
2019-05-10T03:22:45.769Z,82.86
2019-05-10T03:23:45.734Z,82.67
2019-05-10T03:24:45.688Z,82.76
2019-05-10T03:25:45.639Z,82.76
2019-05-10T03:26:50.687Z,82.76
2019-05-10T03:27:45.623Z,82.86
2019-05-10T03:28:45.545Z,82.76
2019-05-10T03:29:45.492Z,82.95
2019-05-10T03:30:45.550Z,82.86
2019-05-10T03:31:45.433Z,82.95
2019-05-10T03:32:45.403Z,82.76
2019-05-10T03:33:45.345Z,82.95
2019-05-10T03:34:45.318Z,82.95
2019-05-10T03:35:45.316Z,83.04
2019-05-10T03:36:45.244Z,82.95
2019-05-10T03:37:45.185Z,82.76
2019-05-10T03:38:45.152Z,82.95
2019-05-10T03:39:45.111Z,82.48
2019-05-10T03:40:45.088Z,82.38
2019-05-10T03:41:45.718Z,82.38
2019-05-10T03:42:45.004Z,82.48
2019-05-10T03:43:44.979Z,82.48
2019-05-10T03:44:44.927Z,81.81
2019-05-10T03:45:44.890Z,82.00
2019-05-10T03:46:44.965Z,82.14
2019-05-10T03:47:44.812Z,81.85
2019-05-10T03:48:44.788Z,81.76
2019-05-10T03:49:44.734Z,81.85
2019-05-10T03:50:44.703Z,81.76
2019-05-10T03:51:44.680Z,81.95
2019-05-10T03:52:44.613Z,81.85
2019-05-10T03:53:44.590Z,81.85
2019-05-10T03:54:44.599Z,81.85
2019-05-10T03:55:45.238Z,81.85
2019-05-10T03:56:44.477Z,82.04
2019-05-10T03:57:44.437Z,81.85
2019-05-10T03:58:44.426Z,81.85
2019-05-10T03:59:44.378Z,82.04
2019-05-10T04:00:44.352Z,82.23
2019-05-10T04:01:44.297Z,82.04
2019-05-10T04:02:44.384Z,82.61
2019-05-10T04:03:44.240Z,82.61
2019-05-10T04:04:44.182Z,82.32
2019-05-10T04:05:44.153Z,82.23
2019-05-10T04:06:44.111Z,82.32
2019-05-10T04:07:44.077Z,82.23
2019-05-10T04:08:44.031Z,82.42
2019-05-10T04:09:43.993Z,82.23
2019-05-10T04:10:43.947Z,82.51
2019-05-10T04:11:43.922Z,82.61
2019-05-10T04:12:43.918Z,82.61
2019-05-10T04:13:43.842Z,82.80
2019-05-10T04:14:43.821Z,82.80
2019-05-10T04:15:43.765Z,83.18
2019-05-10T04:16:43.720Z,82.99
2019-05-10T04:17:43.685Z,82.99
2019-05-10T04:18:43.658Z,82.80
2019-05-10T04:19:43.609Z,82.90
2019-05-10T04:20:43.579Z,83.75
2019-05-10T04:21:43.546Z,83.28
2019-05-10T04:22:43.523Z,83.18
2019-05-10T04:23:43.459Z,82.42
2019-05-10T04:24:43.432Z,82.23
2019-05-10T04:25:43.395Z,82.99
2019-05-10T04:26:43.344Z,82.70
2019-05-10T04:27:44.249Z,82.37
2019-05-10T04:28:43.264Z,82.04
2019-05-10T04:29:43.239Z,82.46
2019-05-10T04:30:43.199Z,82.27
2019-05-10T04:31:43.166Z,82.56
2019-05-10T04:32:43.123Z,82.84
2019-05-10T04:33:43.074Z,82.75
2019-05-10T04:34:43.040Z,83.61
2019-05-10T04:35:43.018Z,83.13
2019-05-10T04:36:42.982Z,83.13
2019-05-10T04:37:42.939Z,83.41
2019-05-10T04:38:42.907Z,84.27
2019-05-10T04:39:42.868Z,83.98
2019-05-10T04:40:42.847Z,84.94
2019-05-10T04:41:42.794Z,84.75
2019-05-10T04:42:42.754Z,84.65
2019-05-10T04:43:42.721Z,84.75
2019-05-10T04:44:42.737Z,84.56
2019-05-10T04:45:42.685Z,84.98
2019-05-10T04:46:42.658Z,84.84
2019-05-10T04:47:42.571Z,85.74
2019-05-10T04:48:42.546Z,86.98
2019-05-10T04:49:42.498Z,86.51
2019-05-10T04:50:42.489Z,86.88
2019-05-10T04:51:42.505Z,87.07
2019-05-10T04:52:42.424Z,88.22
2019-05-10T04:53:42.347Z,87.93
2019-05-10T04:54:42.391Z,88.70
2019-05-10T04:55:42.295Z,88.89
2019-05-10T04:56:42.246Z,88.41
2019-05-10T04:57:50.625Z,88.89
2019-05-10T04:58:42.172Z,89.17
2019-05-10T04:59:42.144Z,90.22
2019-05-10T05:00:42.107Z,90.89
2019-05-10T05:01:42.087Z,90.60
2019-05-10T05:02:42.025Z,90.45
2019-05-10T05:03:41.991Z,90.55
2019-05-10T05:04:41.949Z,91.03
2019-05-10T05:05:41.922Z,93.03
2019-05-10T05:06:41.877Z,95.08
2019-05-10T05:07:41.837Z,94.74
2019-05-10T05:08:41.800Z,94.17
2019-05-10T05:09:41.781Z,94.17
2019-05-10T05:10:41.728Z,93.79
2019-05-10T05:11:41.701Z,93.98
2019-05-10T05:12:41.671Z,94.37
2019-05-10T05:13:41.641Z,96.27
2019-05-10T05:14:41.617Z,95.70
2019-05-10T05:15:41.571Z,95.98
2019-05-10T05:16:41.542Z,97.70
2019-05-10T05:17:41.502Z,98.56
2019-05-10T05:18:41.456Z,96.75
2019-05-10T05:19:41.407Z,96.84
2019-05-10T05:20:41.376Z,97.13
2019-05-10T05:21:41.358Z,95.94
2019-05-10T05:22:41.350Z,97.89
2019-05-10T05:23:41.265Z,99.70
2019-05-10T05:24:41.261Z,99.99
2019-05-10T05:25:41.864Z,99.99
2019-05-10T05:26:41.189Z,99.99
2019-05-10T05:27:41.127Z,99.99
2019-05-10T05:28:41.105Z,99.99
2019-05-10T05:29:41.076Z,99.99
2019-05-10T05:30:41.042Z,99.99
2019-05-10T05:31:40.986Z,99.99
2019-05-10T05:32:44.631Z,99.99
2019-05-10T05:33:40.935Z,99.99
2019-05-10T05:34:40.876Z,99.99
2019-05-10T05:35:40.852Z,99.99
2019-05-10T05:36:40.800Z,99.99
2019-05-10T05:37:41.333Z,99.99
2019-05-10T05:38:47.265Z,99.99
2019-05-10T05:39:40.763Z,99.99
2019-05-10T05:40:40.672Z,99.99
2019-05-10T05:41:48.754Z,99.99
2019-05-10T05:42:40.618Z,99.99
2019-05-10T05:43:45.813Z,99.99
2019-05-10T05:44:40.539Z,99.99
2019-05-10T05:45:40.500Z,99.99
2019-05-10T05:46:40.498Z,99.99
2019-05-10T05:47:42.272Z,99.99
2019-05-10T05:48:40.856Z,99.99
2019-05-10T05:49:40.334Z,99.99
2019-05-10T05:50:40.332Z,99.99
2019-05-10T05:51:41.291Z,99.99
2019-05-10T05:52:40.281Z,99.99
2019-05-10T05:53:42.184Z,99.99
2019-05-10T05:54:40.198Z,99.99
2019-05-10T05:55:40.139Z,99.99
2019-05-10T05:56:44.563Z,99.99
2019-05-10T05:57:40.097Z,99.99
2019-05-10T05:58:44.603Z,99.99
2019-05-10T05:59:39.999Z,99.99
2019-05-10T06:00:44.809Z,99.99
2019-05-10T06:01:39.925Z,99.99
2019-05-10T06:02:44.744Z,99.99
2019-05-10T06:03:39.849Z,99.99
2019-05-10T06:04:40.968Z,99.99
2019-05-10T06:05:39.782Z,99.99
2019-05-10T06:06:39.749Z,99.99
2019-05-10T06:07:39.729Z,99.99
2019-05-10T06:08:39.685Z,99.99
2019-05-10T06:09:39.643Z,99.99
2019-05-10T06:10:39.613Z,99.99
2019-05-10T06:11:39.575Z,99.99
2019-05-10T06:12:39.589Z,99.99
2019-05-10T06:13:39.517Z,99.99
2019-05-10T06:14:43.080Z,99.99
2019-05-10T06:15:39.439Z,99.99
2019-05-10T06:16:39.457Z,99.99
2019-05-10T06:17:39.428Z,99.99
2019-05-10T06:18:41.532Z,99.99
2019-05-10T06:19:39.306Z,99.99
2019-05-10T06:20:44.587Z,99.99
2019-05-10T06:21:39.258Z,99.99
2019-05-10T06:22:43.803Z,99.99
2019-05-10T06:23:39.192Z,99.99
2019-05-10T06:24:39.138Z,99.99
2019-05-10T06:25:42.246Z,99.99
2019-05-10T06:26:39.064Z,99.99
2019-05-10T06:27:40.928Z,99.99
2019-05-10T06:29:38.978Z,99.99
2019-05-10T06:30:38.910Z,99.99
2019-05-10T06:31:38.913Z,99.99
2019-05-10T06:32:38.874Z,99.99
2019-05-10T06:33:44.446Z,99.99
2019-05-10T06:34:40.224Z,99.99
2019-05-10T06:35:38.747Z,99.99
2019-05-10T06:36:38.765Z,99.99
2019-05-10T06:37:38.703Z,99.99
2019-05-10T06:38:38.687Z,99.99
2019-05-10T06:39:38.626Z,99.99
2019-05-10T06:40:46.377Z,99.99
2019-05-10T06:41:38.560Z,99.99
2019-05-10T06:42:38.589Z,99.99
2019-05-10T06:43:38.466Z,99.99
2019-05-10T06:44:38.481Z,99.99
2019-05-10T06:45:38.440Z,99.99
2019-05-10T06:46:38.435Z,99.99
2019-05-10T06:47:41.914Z,99.99
2019-05-10T06:48:38.295Z,99.99
2019-05-10T06:49:41.044Z,99.99
2019-05-10T06:50:38.228Z,99.99
2019-05-10T06:51:42.930Z,99.99
2019-05-10T06:52:38.186Z,99.99
2019-05-10T06:53:42.283Z,99.99
2019-05-10T06:54:38.112Z,99.99
2019-05-10T06:55:38.075Z,99.99
2019-05-10T06:56:38.078Z,99.99
2019-05-10T06:57:38.016Z,99.99
2019-05-10T06:58:38.488Z,99.99
2019-05-10T06:59:37.947Z,99.99
2019-05-10T07:00:43.916Z,99.99
2019-05-10T07:01:44.495Z,99.99
2019-05-10T07:02:37.852Z,99.99
2019-05-10T07:03:37.822Z,99.99
2019-05-10T07:04:40.987Z,99.58
2019-05-10T07:05:37.828Z,99.99
2019-05-10T07:06:38.310Z,99.99
2019-05-10T07:07:45.563Z,99.99
2019-05-10T07:08:44.263Z,99.99
2019-05-10T07:10:01.374Z,99.99
2019-05-10T07:10:37.603Z,99.99
2019-05-10T07:11:38.288Z,99.99
2019-05-10T07:12:37.703Z,99.99
2019-05-10T07:13:40.368Z,97.04
2019-05-10T07:14:44.974Z,89.31
2019-05-10T07:15:42.167Z,87.96
2019-05-10T07:16:37.469Z,86.58
2019-05-10T07:17:43.649Z,86.09
2019-05-10T07:18:37.356Z,82.10
2019-05-10T07:19:42.003Z,82.05
2019-05-10T07:20:37.308Z,83.31
2019-05-10T07:21:38.952Z,82.85
2019-05-10T07:22:37.285Z,86.35
2019-05-10T07:23:39.000Z,88.23
2019-05-10T07:24:37.191Z,91.44
2019-05-10T07:25:37.622Z,93.50
2019-05-10T07:26:37.179Z,91.97
2019-05-10T07:27:38.657Z,91.77
2019-05-10T07:28:37.087Z,95.46
2019-05-10T07:29:43.680Z,96.89
2019-05-10T07:30:40.520Z,97.23
2019-05-10T07:31:36.993Z,97.95
2019-05-10T07:32:37.010Z,98.33
2019-05-10T07:33:38.932Z,98.04
2019-05-10T07:34:36.929Z,97.18
2019-05-10T07:35:38.629Z,97.61
2019-05-10T07:36:36.857Z,98.47
2019-05-10T07:37:36.809Z,99.71
2019-05-10T07:38:36.773Z,99.99
2019-05-10T07:39:36.751Z,98.57
2019-05-10T07:40:36.739Z,99.52
2019-05-10T07:41:36.699Z,99.99
2019-05-10T07:42:39.744Z,98.71
2019-05-10T07:43:36.640Z,96.84
2019-05-10T07:44:36.593Z,93.11
2019-05-10T07:45:36.573Z,88.31
2019-05-10T07:46:40.220Z,86.41
2019-05-10T07:47:36.509Z,87.37
2019-05-10T07:48:41.323Z,87.70
2019-05-10T07:49:36.461Z,89.81
2019-05-10T07:50:36.447Z,89.90
2019-05-10T07:51:36.406Z,89.38
2019-05-10T07:52:43.152Z,91.11
2019-05-10T07:53:36.347Z,89.95
2019-05-10T07:54:37.572Z,88.76
2019-05-10T07:55:36.295Z,90.24
2019-05-10T07:56:38.880Z,90.10
2019-05-10T07:57:36.198Z,89.53
2019-05-10T07:58:38.219Z,91.16
2019-05-10T07:59:49.647Z,93.02
2019-05-10T08:00:37.900Z,92.88
2019-05-10T08:01:36.067Z,93.35
2019-05-10T08:02:36.039Z,94.31
2019-05-10T08:03:44.365Z,92.11
2019-05-10T08:04:38.291Z,92.21
2019-05-10T08:05:35.945Z,92.97
2019-05-10T08:06:44.409Z,92.78
2019-05-10T08:07:35.875Z,91.01
2019-05-10T08:08:35.858Z,89.29
2019-05-10T08:09:37.042Z,88.52
2019-05-10T08:10:35.782Z,88.90
2019-05-10T08:11:35.752Z,88.62
2019-05-10T08:12:43.768Z,89.76
2019-05-10T08:13:35.697Z,88.79
2019-05-10T08:14:35.691Z,87.39
2019-05-10T08:15:35.647Z,77.96
2019-05-10T08:16:35.608Z,74.11
2019-05-10T08:17:40.266Z,71.65
2019-05-10T08:18:35.538Z,70.15
2019-05-10T08:19:37.696Z,69.67
2019-05-10T08:21:35.468Z,67.52
2019-05-10T08:22:41.577Z,66.07
2019-05-10T08:23:36.317Z,63.79
2019-05-10T08:24:35.597Z,68.64
2019-05-10T08:25:40.666Z,66.94
2019-05-10T08:26:35.335Z,62.48
2019-05-10T08:27:35.267Z,62.87
2019-05-10T08:28:37.916Z,62.80
2019-05-10T08:29:35.210Z,63.83
2019-05-10T08:30:35.514Z,64.18
2019-05-10T08:31:40.568Z,63.99
2019-05-10T08:32:35.240Z,64.53
2019-05-10T08:33:35.103Z,62.63
2019-05-10T08:34:39.223Z,59.45
2019-05-10T08:35:36.682Z,58.20
2019-05-10T08:36:37.218Z,59.01
2019-05-10T08:37:37.831Z,63.48
2019-05-10T08:38:39.743Z,62.29
2019-05-10T08:39:45.644Z,59.33
2019-05-10T08:40:37.861Z,60.01
2019-05-10T08:41:34.925Z,62.64
2019-05-10T08:42:44.222Z,63.06
2019-05-10T08:43:38.845Z,63.09
2019-05-10T08:44:34.827Z,63.22
2019-05-10T08:45:38.893Z,62.87
2019-05-10T08:46:40.923Z,63.83
2019-05-10T08:47:34.771Z,62.70
2019-05-10T08:48:38.217Z,60.94
2019-05-10T08:49:43.657Z,60.66
2019-05-10T08:50:49.777Z,60.21
2019-05-10T08:51:34.834Z,58.95
2019-05-10T08:52:34.644Z,60.88
2019-05-10T08:53:34.604Z,59.31
2019-05-10T08:54:34.575Z,59.66
2019-05-10T08:55:34.551Z,60.82
2019-05-10T08:56:34.526Z,60.25
2019-05-10T08:57:43.322Z,61.94
2019-05-10T08:58:37.089Z,61.82
2019-05-10T08:59:34.453Z,62.81
2019-05-10T09:00:45.142Z,63.00
2019-05-10T09:01:44.397Z,61.94
2019-05-10T09:02:34.409Z,60.88
2019-05-10T09:03:34.380Z,60.78
2019-05-10T09:04:45.412Z,59.19
2019-05-10T09:05:34.307Z,59.80
2019-05-10T09:06:34.264Z,59.83
2019-05-10T09:07:38.847Z,58.06
2019-05-10T09:08:34.842Z,57.29
2019-05-10T09:09:46.756Z,56.98
2019-05-10T09:10:34.167Z,58.39
2019-05-10T09:11:34.180Z,60.57
2019-05-10T09:12:34.113Z,62.26
2019-05-10T09:13:40.956Z,62.81
2019-05-10T09:14:34.071Z,64.22
2019-05-10T09:15:34.038Z,65.39
2019-05-10T09:16:39.360Z,62.07
2019-05-10T09:17:33.986Z,58.73
2019-05-10T09:18:38.107Z,59.34
2019-05-10T09:19:40.696Z,59.79
2019-05-10T09:20:33.899Z,58.32
2019-05-10T09:21:33.875Z,59.99
2019-05-10T09:22:38.396Z,63.09
2019-05-10T09:23:33.813Z,65.49
2019-05-10T09:24:34.932Z,63.38
2019-05-10T09:25:33.947Z,63.06
2019-05-10T09:26:33.747Z,62.26
2019-05-10T09:27:33.713Z,62.10
2019-05-10T09:28:33.716Z,63.06
2019-05-10T09:29:37.195Z,61.65
2019-05-10T09:30:35.496Z,62.22
2019-05-10T09:31:33.629Z,58.69
2019-05-10T09:32:33.611Z,55.60
2019-05-10T09:33:33.570Z,56.15
2019-05-10T09:34:33.532Z,56.80
2019-05-10T09:35:33.518Z,57.60
2019-05-10T09:36:36.080Z,58.37
2019-05-10T09:37:33.452Z,58.25
2019-05-10T09:38:37.693Z,59.38
2019-05-10T09:39:33.439Z,61.46
2019-05-10T09:40:33.385Z,62.68
2019-05-10T09:41:38.085Z,63.19
2019-05-10T09:47:33.081Z,62.81
2019-05-10T09:48:12.274Z,64.25
2019-05-10T09:50:05.118Z,63.99
2019-05-10T09:51:05.054Z,64.76
2019-05-10T09:52:12.821Z,66.06
2019-05-10T09:53:07.327Z,67.99
2019-05-10T09:54:07.408Z,67.76
2019-05-10T09:55:10.149Z,68.91
2019-05-10T09:56:04.913Z,67.85
2019-05-10T09:57:04.922Z,68.33
2019-05-10T09:58:04.868Z,69.29
2019-05-10T09:59:04.863Z,69.74
2019-05-10T10:00:07.238Z,69.58
2019-05-10T10:01:14.787Z,70.98
2019-05-10T10:02:05.011Z,71.94
2019-05-10T10:03:04.721Z,70.70
2019-05-10T10:04:04.693Z,71.27
2019-05-10T10:05:04.655Z,69.87
2019-05-10T10:06:07.683Z,69.77
2019-05-10T10:07:04.609Z,69.68
2019-05-10T10:08:09.321Z,70.19
2019-05-10T10:09:07.276Z,70.96
2019-05-10T10:10:07.143Z,69.62
2019-05-10T10:11:11.508Z,67.16
2019-05-10T10:12:06.806Z,66.67
2019-05-10T10:13:11.501Z,67.63
2019-05-10T10:14:04.467Z,67.86
2019-05-10T10:15:04.392Z,68.24
2019-05-10T10:16:12.624Z,66.03
2019-05-10T10:17:04.320Z,65.56
2019-05-10T10:18:04.299Z,64.40
2019-05-10T10:19:04.350Z,66.58
2019-05-10T10:20:04.235Z,67.86
2019-05-10T10:21:04.186Z,67.67
2019-05-10T10:22:05.573Z,67.76
2019-05-10T10:23:04.138Z,66.58
2019-05-10T10:24:12.220Z,65.62
2019-05-10T10:25:04.073Z,66.71
2019-05-10T10:26:04.057Z,65.20
2019-05-10T10:27:04.009Z,66.55
2019-05-10T10:28:10.408Z,65.84
2019-05-10T10:29:03.989Z,66.42
2019-05-10T10:30:06.685Z,67.35
2019-05-10T10:31:05.382Z,67.79
2019-05-10T10:32:03.871Z,67.69
2019-05-10T10:33:05.740Z,70.19
2019-05-10T10:34:03.901Z,70.00
2019-05-10T10:35:03.794Z,69.42
2019-05-10T10:36:05.502Z,70.41
2019-05-10T10:37:03.733Z,71.08
2019-05-10T10:38:05.632Z,71.17
2019-05-10T10:39:03.672Z,72.42
2019-05-10T10:40:05.396Z,71.84
2019-05-10T10:41:03.615Z,70.85
2019-05-10T10:42:08.807Z,71.23
2019-05-10T10:43:03.544Z,71.81
2019-05-10T10:44:03.519Z,72.29
2019-05-10T10:45:03.907Z,72.86
2019-05-10T10:46:03.470Z,72.09
2019-05-10T10:47:03.427Z,72.58
2019-05-10T10:48:08.565Z,73.30
2019-05-10T10:49:05.368Z,74.49
2019-05-10T10:50:09.176Z,76.02
2019-05-10T10:51:03.324Z,76.75
2019-05-10T10:52:05.696Z,77.42
2019-05-10T10:53:03.265Z,79.29
2019-05-10T10:54:03.217Z,83.22
2019-05-10T10:55:05.669Z,82.64
2019-05-10T10:56:03.990Z,83.40
2019-05-10T10:57:03.148Z,84.94
2019-05-10T10:58:03.136Z,86.28
2019-05-10T10:59:03.075Z,88.33
2019-05-10T11:00:03.082Z,86.41
2019-05-10T11:01:10.849Z,83.15
2019-05-10T11:02:30.198Z,79.68
2019-05-10T11:03:02.930Z,75.98
2019-05-10T11:04:07.410Z,73.18
2019-05-10T11:05:02.876Z,72.34
2019-05-10T11:06:02.836Z,73.02
2019-05-10T11:07:10.582Z,72.60
2019-05-10T11:08:02.787Z,72.56
2019-05-10T11:09:02.781Z,71.53
2019-05-10T11:10:14.655Z,71.44
2019-05-10T11:11:02.694Z,72.64
2019-05-10T11:12:02.653Z,72.74
2019-05-10T11:13:08.148Z,72.78
2019-05-10T11:14:07.366Z,72.72
2019-05-10T11:15:02.567Z,72.37
2019-05-10T11:16:09.919Z,70.32
2019-05-10T11:17:02.505Z,71.28
2019-05-10T11:18:02.473Z,71.40
2019-05-10T11:19:03.641Z,71.69
2019-05-10T11:20:02.424Z,72.74
2019-05-10T11:21:02.406Z,73.13
2019-05-10T11:22:09.662Z,72.42
2019-05-10T11:23:02.320Z,73.76
2019-05-10T11:24:02.379Z,73.95
2019-05-10T11:25:09.059Z,74.58
2019-05-10T11:26:02.245Z,74.20
2019-05-10T11:27:02.249Z,75.26
2019-05-10T11:28:02.186Z,76.75
2019-05-10T11:29:02.143Z,78.95
2019-05-10T11:30:02.165Z,81.30
2019-05-10T11:31:02.079Z,82.35
2019-05-10T11:32:15.455Z,83.36
2019-05-10T11:33:02.042Z,84.98
2019-05-10T11:34:01.994Z,82.92
2019-05-10T11:35:05.236Z,82.82
2019-05-10T11:36:03.963Z,81.13
2019-05-10T11:37:01.920Z,79.70
2019-05-10T11:38:06.549Z,79.26
2019-05-10T11:39:01.908Z,79.11
2019-05-10T11:40:01.946Z,76.46
2019-05-10T11:41:02.288Z,77.65
2019-05-10T11:42:07.007Z,74.73
2019-05-10T11:43:01.725Z,71.61
2019-05-10T11:44:05.434Z,70.64
2019-05-10T11:45:01.684Z,70.03
2019-05-10T11:46:01.623Z,72.72
2019-05-10T11:47:01.703Z,72.20
2019-05-10T11:48:02.262Z,73.07
2019-05-10T11:49:01.892Z,73.74
2019-05-10T11:50:06.365Z,73.61
2019-05-10T11:51:05.743Z,73.19
2019-05-10T11:53:01.401Z,75.54
2019-05-10T11:54:01.396Z,76.37
2019-05-10T11:55:01.472Z,76.94
2019-05-10T11:56:02.262Z,77.61
2019-05-10T11:57:06.601Z,78.76
2019-05-10T11:59:03.904Z,73.86
2019-05-10T11:59:04.985Z,79.62
2019-05-10T12:00:01.189Z,79.47
2019-05-10T12:01:12.808Z,77.78
2019-05-10T12:02:02.908Z,76.82
2019-05-10T12:03:07.928Z,75.58
2019-05-10T12:04:02.116Z,76.19
2019-05-10T12:05:11.002Z,76.86
2019-05-10T12:07:02.755Z,75.52
2019-05-10T12:08:02.124Z,74.02
2019-05-10T12:09:04.383Z,73.58
2019-05-10T12:10:07.694Z,72.33
2019-05-10T12:11:12.437Z,71.19
2019-05-10T12:12:03.267Z,71.63
2019-05-10T12:13:11.371Z,72.30
2019-05-10T12:15:04.278Z,74.33
2019-05-10T12:16:00.713Z,75.48
2019-05-10T12:17:05.599Z,75.96
2019-05-10T12:18:04.519Z,76.25
2019-05-10T12:20:02.478Z,77.19
2019-05-10T12:22:04.677Z,73.30
2019-05-10T12:23:03.412Z,73.83
2019-05-10T12:24:10.427Z,72.97
2019-05-10T12:25:27.439Z,73.55
2019-05-10T12:26:05.084Z,74.47
2019-05-10T12:26:06.530Z,73.03
2019-05-10T12:26:06.533Z,77.15
2019-05-10T12:26:12.074Z,75.85
2019-05-10T12:26:18.046Z,78.76
2019-05-10T12:27:12.723Z,74.54
2019-05-10T12:27:18.650Z,74.54
2019-05-10T12:28:01.265Z,73.94
2019-05-10T12:29:11.627Z,71.58
2019-05-10T12:30:03.251Z,70.17
2019-05-10T12:31:01.450Z,70.56
2019-05-10T12:32:00.267Z,69.50
2019-05-10T12:33:08.942Z,69.66
2019-05-10T12:34:08.722Z,70.04
2019-05-10T12:35:01.477Z,70.39
2019-05-10T12:36:00.088Z,70.14
2019-05-10T12:37:06.305Z,69.72
2019-05-10T12:38:01.682Z,70.01
2019-05-10T12:39:01.796Z,70.51
2019-05-10T12:40:08.991Z,73.20
2019-05-10T12:41:01.325Z,72.75
2019-05-10T12:41:59.899Z,73.52
2019-05-10T12:43:00.691Z,75.73
2019-05-10T12:44:05.751Z,73.68
2019-05-10T12:45:01.288Z,74.35
2019-05-10T12:45:59.792Z,73.58
2019-05-10T12:47:01.256Z,74.44
2019-05-10T12:48:01.280Z,73.87
2019-05-10T12:49:02.075Z,74.54
2019-05-10T12:50:02.149Z,75.96
2019-05-10T12:51:07.656Z,72.50
2019-05-10T12:51:59.613Z,72.75
2019-05-10T12:53:12.640Z,73.52
2019-05-10T12:53:59.569Z,75.20
2019-05-10T12:54:59.593Z,74.71
2019-05-10T12:55:59.495Z,71.80
2019-05-10T12:56:59.474Z,72.28
2019-05-10T12:57:59.448Z,71.98
2019-05-10T12:58:59.807Z,70.74
2019-05-10T12:59:59.393Z,70.74
2019-05-10T13:00:59.356Z,72.28
2019-05-10T13:02:04.337Z,72.75
2019-05-10T13:03:12.237Z,76.69